Time;durP1;ratioP1;P1;durP2;ratioP2;P2;SDS_P1;SDS_P2;PMS_P1;PMS_P2;Temp;Humidity;BMP_temperature;BMP_pressure;BME280_temperature;BME280_humidity;BME280_pressure;Samples;Min_cycle;Max_cycle;Signal;HPM_P1;HPM_P2
2022/12/28 00:02:23;;;;;;;15.70;7.82;;;9.60;55.00;;;;;;5115150;28;20150;-85
2022/12/28 00:04:49;;;;;;;16.05;8.05;;;9.50;55.20;;;;;;5115478;28;20562;-83
2022/12/28 00:07:15;;;;;;;17.02;8.27;;;9.50;55.30;;;;;;5115810;28;20027;-82
2022/12/28 00:09:41;;;;;;;14.93;7.22;;;9.70;55.00;;;;;;5115472;28;20482;-85
2022/12/28 00:12:07;;;;;;;12.93;7.35;;;9.70;54.70;;;;;;5115704;28;20032;-85
2022/12/28 00:14:32;;;;;;;12.50;7.22;;;9.70;54.10;;;;;;5101754;28;20027;-86
2022/12/28 00:16:58;;;;;;;14.50;6.80;;;9.30;54.30;;;;;;5094906;28;20063;-86
2022/12/28 00:19:24;;;;;;;17.27;8.02;;;9.40;54.40;;;;;;5094881;28;20025;-84
2022/12/28 00:21:52;;;;;;;18.83;8.75;;;9.30;54.60;;;;;;5094896;28;20033;-85
2022/12/28 00:24:24;;;;;;;14.93;8.00;;;9.30;54.70;;;;;;5095808;28;20103;-83
2022/12/28 00:26:50;;;;;;;14.60;7.50;;;9.30;54.70;;;;;;5095837;28;20027;-86
2022/12/28 00:29:17;;;;;;;13.55;7.55;;;9.00;55.40;;;;;;5095715;28;20028;-85
2022/12/28 00:31:44;;;;;;;19.27;7.85;;;8.60;56.80;;;;;;5094524;28;20020;-84
2022/12/28 00:34:16;;;;;;;14.55;7.97;;;8.50;57.50;;;;;;5094288;28;20066;-83
2022/12/28 00:36:42;;;;;;;17.02;9.00;;;8.70;55.70;;;;;;5095233;28;20031;-85
2022/12/28 00:39:07;;;;;;;21.27;9.75;;;8.80;55.30;;;;;;5095641;28;20021;-83
2022/12/28 00:41:33;;;;;;;17.52;9.18;;;8.90;55.10;;;;;;5094488;28;20482;-84
2022/12/28 00:43:59;;;;;;;17.20;8.93;;;9.00;54.90;;;;;;5094852;28;20114;-85
2022/12/28 00:46:24;;;;;;;15.45;8.07;;;9.00;54.70;;;;;;5093229;28;20497;-84
2022/12/28 00:48:50;;;;;;;17.27;9.75;;;9.20;54.60;;;;;;5093787;28;20463;-85
2022/12/28 00:51:18;;;;;;;15.68;8.85;;;9.10;54.80;;;;;;5095387;28;20020;-86
2022/12/28 00:53:44;;;;;;;19.83;8.43;;;9.20;55.00;;;;;;5094343;28;20032;-85
2022/12/28 00:56:15;;;;;;;16.30;8.73;;;8.90;54.70;;;;;;5094124;28;20016;-85
2022/12/28 00:58:42;;;;;;;17.65;10.18;;;8.70;55.00;;;;;;5094111;28;20127;-85
2022/12/28 01:01:16;;;;;;;19.88;10.45;;;8.80;55.10;;;;;;5093755;28;20096;-84
2022/12/28 01:03:42;;;;;;;25.25;12.65;;;8.70;55.30;;;;;;5094071;28;20452;-85
2022/12/28 01:06:10;;;;;;;20.83;11.13;;;8.70;55.50;;;;;;4042253;27;10000621;-86
2022/12/28 01:08:37;;;;;;;18.17;10.50;;;8.70;55.30;;;;;;5113889;28;20070;-86
2022/12/28 01:11:40;;;;;;;21.20;11.10;;;8.90;55.20;;;;;;5114532;28;20490;-85
2022/12/28 01:14:06;;;;;;;18.92;10.35;;;9.10;54.60;;;;;;5093552;28;20032;-87
2022/12/28 01:16:49;;;;;;;19.63;9.80;;;8.90;54.40;;;;;;5111328;28;20024;-88
2022/12/28 01:19:19;;;;;;;21.25;11.10;;;9.00;54.50;;;;;;5112675;28;20035;-87
2022/12/28 01:21:50;;;;;;;19.75;10.07;;;9.00;54.40;;;;;;5090253;28;20070;-85
2022/12/28 01:24:17;;;;;;;24.83;9.45;;;8.90;54.00;;;;;;5093014;28;20518;-86
2022/12/28 01:30:05;;;;;;;17.60;10.23;;;8.60;54.30;;;;;;5093364;28;20462;-87
2022/12/28 01:33:11;;;;;;;18.63;9.68;;;8.50;56.00;;;;;;5093213;28;20490;-85
2022/12/28 01:39:01;;;;;;;18.15;8.95;;;8.80;54.60;;;;;;5032625;28;20041;-86
2022/12/28 01:41:52;;;;;;;15.93;9.00;;;8.80;54.50;;;;;;5032511;28;20034;-87
2022/12/28 01:44:23;;;;;;;16.95;9.43;;;8.90;54.40;;;;;;5032344;28;20060;-87
2022/12/28 01:46:55;;;;;;;17.25;10.00;;;8.60;56.20;;;;;;5249166;22;20199;-86
2022/12/28 01:50:08;;;;;;;15.45;8.93;;;8.70;55.90;;;;;;5054666;28;20028;-87
2022/12/28 01:56:37;;;;;;;15.40;8.45;;;8.20;55.80;;;;;;5054692;28;20074;-88
2022/12/28 01:59:07;;;;;;;13.63;8.35;;;7.80;56.00;;;;;;5053701;28;20021;-88
2022/12/28 02:01:33;;;;;;;;;;;7.90;56.70;;;;;;5053894;28;20048;-89
2022/12/28 02:03:59;;;;;;;12.95;7.85;;;8.20;56.30;;;;;;5053632;28;19905;-88
2022/12/28 02:06:25;;;;;;;13.25;7.45;;;8.50;56.00;;;;;;5053520;28;20045;-89
2022/12/28 02:09:09;;;;;;;14.30;7.50;;;8.70;55.10;;;;;;5053555;28;20382;-88
2022/12/28 02:11:37;;;;;;;14.13;7.85;;;8.90;54.70;;;;;;5054478;28;20063;-88
2022/12/28 02:14:05;;;;;;;12.52;7.07;;;8.90;54.80;;;;;;5052879;28;20079;-89
2022/12/28 02:16:30;;;;;;;14.35;7.00;;;8.90;54.70;;;;;;5053302;28;20112;-88
2022/12/28 02:19:45;;;;;;;13.98;7.70;;;8.90;54.50;;;;;;5052928;28;20025;-88
2022/12/28 02:22:10;;;;;;;13.48;7.53;;;8.90;54.90;;;;;;5056099;28;20032;-88
2022/12/28 02:25:07;;;;;;;13.90;7.25;;;8.90;55.70;;;;;;5059595;28;20025;-88
2022/12/28 02:28:09;;;;;;;13.43;7.05;;;8.90;54.70;;;;;;5251758;22;20055;-88
2022/12/28 02:30:45;;;;;;;12.40;6.88;;;8.80;53.90;;;;;;5137438;27;20023;-89
2022/12/28 02:33:51;;;;;;;15.38;8.07;;;8.60;54.60;;;;;;5155923;27;20353;-88
2022/12/28 02:40:23;;;;;;;16.13;9.73;;;8.50;54.80;;;;;;5052165;28;20052;-89
2022/12/28 02:42:53;;;;;;;18.02;9.75;;;8.30;55.00;;;;;;5024708;28;20102;-88
2022/12/28 02:52:37;;;;;;;19.33;10.73;;;8.40;54.40;;;;;;5052045;28;20067;-88
2022/12/28 02:58:49;;;;;;;14.57;8.57;;;8.30;54.00;;;;;;5052139;28;20032;-89
2022/12/28 03:02:07;;;;;;;13.25;7.65;;;8.10;54.40;;;;;;5037430;28;20060;-88
2022/12/28 03:08:33;;;;;;;;;;;;;;;;;;;;;
2022/12/28 03:14:45;;;;;;;15.32;9.10;;;8.10;55.70;;;;;;5097333;28;20558;-88
2022/12/28 03:38:33;;;;;;;18.58;9.35;;;8.00;54.30;;;;;;5120529;27;20038;-88
2022/12/28 03:41:10;;;;;;;18.92;10.15;;;8.10;54.20;;;;;;5107522;28;20028;-88
2022/12/28 03:44:31;;;;;;;18.02;9.07;;;8.20;54.30;;;;;;5098830;28;20044;-88
2022/12/28 03:47:17;;;;;;;22.35;11.40;;;8.00;54.30;;;;;;5054065;28;20135;-89
2022/12/28 03:50:05;;;;;;;18.67;10.48;;;8.00;54.00;;;;;;5086387;28;20114;-88
2022/12/28 03:56:28;;;;;;;18.45;9.50;;;7.90;54.60;;;;;;5075239;28;20452;-88
2022/12/28 03:59:09;;;;;;;19.90;9.18;;;7.80;54.80;;;;;;5040400;28;20040;-88
2022/12/28 04:02:15;;;;;;;22.45;12.00;;;7.60;54.30;;;;;;5087277;28;20032;-88
2022/12/28 04:09:05;;;;;;;20.27;9.45;;;7.70;55.40;;;;;;5008170;28;20080;-87
2022/12/28 04:11:36;;;;;;;24.52;12.50;;;7.70;54.90;;;;;;4959146;28;20474;-88
2022/12/28 04:14:26;;;;;;;;;;;7.60;54.40;;;;;;4937062;29;20032;-88
2022/12/28 04:16:55;;;;;;;30.90;14.70;;;7.70;54.60;;;;;;4920674;29;19910;-88
2022/12/28 04:19:29;;;;;;;25.65;12.43;;;7.80;54.80;;;;;;4929772;29;20048;-87
2022/12/28 04:21:55;;;;;;;21.65;12.30;;;7.90;54.40;;;;;;4925866;29;20405;-89
2022/12/28 04:28:02;;;;;;;24.15;12.52;;;7.90;55.90;;;;;;4880680;29;20124;-86
2022/12/28 04:30:27;;;;;;;19.55;12.38;;;7.80;54.90;;;;;;4865289;29;20036;-87
2022/12/28 04:33:46;;;;;;;17.88;9.85;;;7.90;55.20;;;;;;4864951;29;20029;-89
2022/12/28 04:36:14;;;;;;;17.50;9.85;;;7.80;55.00;;;;;;4880376;29;20033;-87
2022/12/28 04:38:40;;;;;;;17.20;9.75;;;7.70;55.10;;;;;;4864844;29;20072;-87
2022/12/28 04:41:07;;;;;;;21.42;11.02;;;7.40;55.10;;;;;;4865977;29;20064;-91
2022/12/28 04:43:33;;;;;;;20.38;11.27;;;7.00;55.90;;;;;;4883450;29;20049;-90
2022/12/28 04:46:01;;;;;;;17.70;11.25;;;7.00;56.60;;;;;;4898858;29;20077;-91
2022/12/28 04:48:47;;;;;;;19.60;10.65;;;7.20;56.40;;;;;;4936592;29;20031;-90
2022/12/28 04:51:40;;;;;;;18.80;9.82;;;7.30;55.90;;;;;;4939470;29;20394;-87
2022/12/28 04:54:06;;;;;;;18.48;10.82;;;7.50;56.00;;;;;;4955340;29;20106;-87
2022/12/28 04:56:31;;;;;;;17.17;9.52;;;7.00;55.20;;;;;;4956074;29;20114;-91
2022/12/28 04:58:59;;;;;;;19.20;10.40;;;6.80;56.20;;;;;;4955506;29;20019;-89
2022/12/28 05:01:25;;;;;;;17.95;10.32;;;6.80;56.00;;;;;;4996920;28;20052;-89
2022/12/28 05:03:52;;;;;;;17.27;10.30;;;7.20;55.80;;;;;;5017869;28;20053;-92
2022/12/28 05:06:23;;;;;;;17.63;9.73;;;7.30;56.70;;;;;;5034455;28;20017;-88
2022/12/28 05:08:49;;;;;;;20.15;9.63;;;7.50;56.40;;;;;;5017776;28;20037;-87
2022/12/28 05:11:19;;;;;;;20.40;10.65;;;7.50;57.00;;;;;;5034925;28;20022;-90
2022/12/28 05:13:44;;;;;;;;;;;7.70;56.40;;;;;;5034608;28;20116;-90
2022/12/28 05:16:13;;;;;;;15.02;8.90;;;7.50;54.30;;;;;;5017419;28;20008;-88
2022/12/28 05:18:43;;;;;;;18.92;9.32;;;7.00;55.00;;;;;;5033734;28;20029;-87
2022/12/28 05:21:20;;;;;;;19.58;10.10;;;7.00;55.40;;;;;;5034664;28;20563;-90
2022/12/28 05:23:57;;;;;;;20.05;9.73;;;7.00;55.80;;;;;;5017286;28;20025;-87
2022/12/28 05:29:44;;;;;;;27.27;14.90;;;7.40;55.90;;;;;;5035200;28;20087;-89
2022/12/28 05:32:10;;;;;;;29.75;17.10;;;7.30;56.20;;;;;;5016860;28;20029;-89
2022/12/28 05:34:36;;;;;;;35.55;20.50;;;7.20;55.90;;;;;;5035271;28;20407;-85
2022/12/28 05:37:02;;;;;;;31.05;18.20;;;7.30;56.20;;;;;;5017351;28;20093;-90
2022/12/28 05:39:27;;;;;;;27.60;16.35;;;7.60;55.40;;;;;;5017127;28;20025;-90
2022/12/28 05:41:53;;;;;;;24.70;13.95;;;7.70;55.40;;;;;;5034353;28;20033;-86
2022/12/28 05:44:21;;;;;;;23.52;13.20;;;7.70;55.30;;;;;;5017542;28;20026;-88
2022/12/28 05:46:47;;;;;;;24.88;14.68;;;7.60;56.10;;;;;;5017159;28;20033;-88
2022/12/28 05:49:12;;;;;;;22.60;11.82;;;7.80;55.10;;;;;;5017075;28;20387;-86
2022/12/28 05:51:43;;;;;;;20.55;10.93;;;7.70;55.70;;;;;;5016735;28;20021;-91
2022/12/28 05:54:27;;;;;;;19.30;10.77;;;7.60;56.10;;;;;;5016691;28;20150;-88
2022/12/28 05:56:53;;;;;;;21.83;10.80;;;7.60;56.40;;;;;;5033497;28;20026;-86
2022/12/28 05:59:18;;;;;;;18.80;11.98;;;7.70;55.70;;;;;;5016827;28;20453;-89
2022/12/28 06:01:44;;;;;;;21.70;12.13;;;7.60;54.00;;;;;;5016516;28;20029;-88
2022/12/28 06:04:16;;;;;;;20.48;11.30;;;7.60;54.20;;;;;;5017269;28;20031;-85
2022/12/28 06:06:42;;;;;;;22.95;13.57;;;7.60;54.40;;;;;;5033331;28;20021;-85
2022/12/28 06:09:07;;;;;;;26.55;14.30;;;7.80;54.30;;;;;;5016704;28;20037;-91
2022/12/28 06:15:22;;;;;;;21.48;11.48;;;7.70;55.60;;;;;;5034417;28;20107;-89
2022/12/28 06:17:51;;;;;;;23.95;12.68;;;7.40;53.20;;;;;;5042970;28;20029;-85
2022/12/28 06:26:14;;;;;;;21.45;11.50;;;7.10;54.40;;;;;;5431301;22;20125;-85
2022/12/28 06:28:41;;;;;;;24.00;11.45;;;7.00;53.70;;;;;;5117465;28;20044;-87
2022/12/28 06:31:18;;;;;;;23.23;11.43;;;6.90;54.20;;;;;;5117907;28;20019;-86
2022/12/28 06:33:44;;;;;;;22.80;12.45;;;6.90;54.30;;;;;;5118832;28;20068;-85
2022/12/28 06:36:19;;;;;;;25.00;12.20;;;6.90;55.00;;;;;;5118440;28;20525;-84
2022/12/28 06:38:54;;;;;;;19.08;10.82;;;6.80;55.00;;;;;;5106790;28;20409;-84
2022/12/28 06:41:21;;;;;;;20.05;10.05;;;6.90;54.40;;;;;;5502438;22;20019;-87
2022/12/28 06:43:48;;;;;;;20.02;11.10;;;6.70;54.40;;;;;;5095442;28;20404;-87
2022/12/28 06:46:21;;;;;;;19.17;10.88;;;6.80;54.80;;;;;;5084243;28;20077;-89
2022/12/28 06:48:49;;;;;;;22.50;11.43;;;6.90;54.70;;;;;;5083885;28;20024;-91
2022/12/28 06:53:59;;;;;;;18.50;10.93;;;6.90;54.30;;;;;;5357341;22;20047;-86
2022/12/28 06:56:34;;;;;;;20.65;10.50;;;6.90;54.70;;;;;;5141944;27;20456;-86
2022/12/28 06:59:03;;;;;;;19.23;11.20;;;7.10;54.40;;;;;;5146396;27;20022;-86
2022/12/28 07:01:35;;;;;;;32.63;15.63;;;6.80;56.60;;;;;;5141071;27;20373;-89
2022/12/28 07:10:51;;;;;;;52.33;30.08;;;5.60;60.10;;;;;;5164618;27;20032;-88
2022/12/28 07:13:44;;;;;;;47.92;30.75;;;5.70;61.20;;;;;;5140065;27;20035;-87
2022/12/28 07:19:46;;;;;;;41.38;23.13;;;6.80;59.30;;;;;;5128898;22;20482;-90
2022/12/28 07:22:11;;;;;;;31.52;18.55;;;7.00;60.00;;;;;;5108562;22;20822;-89
2022/12/28 07:24:38;;;;;;;27.98;17.55;;;7.30;59.60;;;;;;5203331;22;20072;-89
2022/12/28 07:27:03;;;;;;;28.27;15.25;;;7.70;57.50;;;;;;5058858;28;20020;-89
2022/12/28 07:29:29;;;;;;;22.10;13.52;;;8.00;56.00;;;;;;5058392;28;20025;-89
2022/12/28 07:31:55;;;;;;;42.53;16.50;;;8.20;55.20;;;;;;5058365;28;20025;-88
2022/12/28 07:34:27;;;;;;;33.88;16.13;;;8.30;55.00;;;;;;5075696;28;20518;-87
2022/12/28 07:36:55;;;;;;;33.33;15.65;;;8.40;54.80;;;;;;5076662;28;20023;-86
2022/12/28 07:39:20;;;;;;;43.15;19.05;;;8.40;54.80;;;;;;5075856;28;20029;-89
2022/12/28 07:41:46;;;;;;;38.88;19.75;;;8.50;54.70;;;;;;5076352;28;20377;-87
2022/12/28 07:47:27;;;;;;;28.45;16.90;;;8.70;55.30;;;;;;5983336;22;20044;-86
2022/12/28 07:49:53;;;;;;;31.88;16.30;;;8.70;55.10;;;;;;5090741;28;20028;-86
2022/12/28 07:52:19;;;;;;;30.75;17.52;;;8.80;55.00;;;;;;5235186;22;20474;-89
2022/12/28 07:54:48;;;;;;;34.92;19.30;;;8.90;55.00;;;;;;5114963;28;20016;-89
2022/12/28 07:57:14;;;;;;;33.38;21.27;;;9.00;54.70;;;;;;5104733;28;20024;-88
2022/12/28 08:00:13;;;;;;;35.17;19.27;;;9.00;54.90;;;;;;5105946;28;20030;-88
2022/12/28 08:09:22;;;;;;;44.03;20.15;;;9.30;54.70;;;;;;5029747;22;20061;-87
2022/12/28 08:15:13;;;;;;;60.78;25.08;;;9.20;54.90;;;;;;5271229;22;20031;-91
2022/12/28 08:18:45;;;;;;;62.33;25.15;;;9.20;55.60;;;;;;5091588;22;20044;-88
2022/12/28 08:22:10;;;;;;;76.53;37.75;;;8.90;56.20;;;;;;5012834;28;20072;-90
2022/12/28 08:24:36;;;;;;;77.88;36.45;;;8.90;56.10;;;;;;5106293;22;20025;-91
2022/12/28 08:27:33;;;;;;;73.30;36.72;;;8.40;57.10;;;;;;5092863;23;20045;-91
2022/12/28 08:30:00;;;;;;;54.13;24.73;;;8.60;57.10;;;;;;5043610;28;20063;-90
2022/12/28 08:32:30;;;;;;;50.88;22.25;;;8.90;57.10;;;;;;5013227;28;20034;-88
2022/12/28 08:35:19;;;;;;;53.80;24.42;;;9.00;56.90;;;;;;4989553;28;20042;-90
2022/12/28 08:47:05;;;;;;;27.63;17.83;;;10.40;54.70;;;;;;4967269;28;20051;-87
2022/12/28 08:49:31;;;;;;;24.00;14.68;;;10.70;53.90;;;;;;4973497;28;20027;-87
2022/12/28 08:52:47;;;;;;;23.48;14.88;;;11.10;53.50;;;;;;4975391;28;20509;-88
2022/12/28 08:55:50;;;;;;;28.42;16.50;;;12.50;52.10;;;;;;4971873;28;20039;-87
2022/12/28 08:58:45;;;;;;;29.67;15.27;;;13.90;49.50;;;;;;4967199;28;20027;-87
2022/12/28 09:01:15;;;;;;;25.65;15.13;;;14.90;47.70;;;;;;4968057;28;20522;-87
2022/12/28 09:03:43;;;;;;;27.67;15.60;;;15.90;46.40;;;;;;4975360;28;20128;-85
2022/12/28 09:06:20;;;;;;;27.73;15.80;;;16.70;45.70;;;;;;4973279;28;20027;-87
2022/12/28 09:12:08;;;;;;;31.98;17.58;;;18.70;43.10;;;;;;5585992;22;20092;-88
2022/12/28 09:14:33;;;;;;;32.45;18.27;;;18.60;43.10;;;;;;5033482;28;20049;-91
2022/12/28 09:17:00;;;;;;;29.98;16.48;;;19.20;42.70;;;;;;5035104;28;20100;-88
2022/12/28 09:19:26;;;;;;;43.50;24.20;;;19.10;42.40;;;;;;5035543;28;20041;-86
2022/12/28 09:21:58;;;;;;;47.17;25.80;;;18.70;43.10;;;;;;5034678;28;20094;-85
2022/12/28 09:24:24;;;;;;;28.60;17.60;;;18.00;43.00;;;;;;5035061;28;20173;-86
2022/12/28 09:26:51;;;;;;;29.05;18.33;;;16.00;45.00;;;;;;5035759;28;20021;-89
2022/12/28 09:29:46;;;;;;;38.53;22.92;;;15.20;46.40;;;;;;5031866;28;20075;-89
2022/12/28 09:32:12;;;;;;;47.53;29.27;;;14.70;46.70;;;;;;5031423;28;20068;-86
2022/12/28 09:34:37;;;;;;;40.13;24.45;;;14.60;47.20;;;;;;5031578;28;20056;-84
2022/12/28 09:37:07;;;;;;;32.47;21.15;;;14.70;47.20;;;;;;5043433;28;20060;-87
2022/12/28 09:39:57;;;;;;;28.83;19.05;;;14.50;47.10;;;;;;5052304;28;20082;-89
2022/12/28 09:42:27;;;;;;;;;;;14.50;47.60;;;;;;5053592;28;20044;-87
2022/12/28 09:45:03;;;;;;;27.17;16.25;;;14.70;47.80;;;;;;5053664;28;19936;-86
2022/12/28 09:47:58;;;;;;;29.48;16.42;;;15.90;46.60;;;;;;5053663;28;20040;-91
2022/12/28 09:50:28;;;;;;;32.72;18.05;;;17.80;44.80;;;;;;5050884;28;20028;-87
2022/12/28 09:53:15;;;;;;;30.02;17.42;;;19.20;43.20;;;;;;5053145;28;20383;-91
2022/12/28 09:59:07;;;;;;;31.25;15.32;;;19.10;42.00;;;;;;5054189;28;20074;-85
2022/12/28 10:01:38;;;;;;;26.02;16.60;;;18.70;43.10;;;;;;5052790;28;20025;-86
2022/12/28 10:07:00;;;;;;;24.17;15.43;;;19.60;42.20;;;;;;4993371;28;20054;-88
2022/12/28 10:09:29;;;;;;;25.63;15.52;;;18.40;42.70;;;;;;4993426;28;20453;-88
2022/12/28 10:11:56;;;;;;;26.27;17.02;;;17.80;43.90;;;;;;4993754;28;20030;-88
2022/12/28 10:14:34;;;;;;;26.25;17.23;;;18.00;44.00;;;;;;4994600;28;20473;-88
2022/12/28 10:17:01;;;;;;;25.02;16.80;;;18.10;43.10;;;;;;4994051;28;20041;-88
2022/12/28 10:19:39;;;;;;;25.65;16.40;;;17.70;44.00;;;;;;4998971;28;20477;-89
2022/12/28 10:22:22;;;;;;;24.10;16.58;;;17.30;44.30;;;;;;4305582;28;10001200;-89
2022/12/28 10:24:48;;;;;;;32.38;18.30;;;17.10;44.60;;;;;;4995340;28;20687;-89
2022/12/28 10:27:17;;;;;;;27.02;16.88;;;17.40;44.90;;;;;;4997181;28;20029;-89
2022/12/28 10:29:43;;;;;;;27.25;17.58;;;17.80;43.90;;;;;;4997989;28;20074;-88
2022/12/28 10:32:11;;;;;;;24.58;16.55;;;17.80;44.10;;;;;;4997822;28;20108;-88
2022/12/28 10:34:51;;;;;;;40.65;23.77;;;18.60;43.90;;;;;;4998011;28;20030;-89
2022/12/28 10:37:18;;;;;;;31.33;19.80;;;19.20;42.90;;;;;;4997070;28;20113;-89
2022/12/28 10:39:57;;;;;;;29.75;19.60;;;18.60;42.60;;;;;;4996953;28;20038;-88
2022/12/28 10:42:28;;;;;;;29.13;19.60;;;16.20;45.10;;;;;;4996895;28;20043;-87
2022/12/28 10:45:05;;;;;;;30.88;19.27;;;14.80;47.50;;;;;;4996811;28;20022;-87
2022/12/28 10:47:34;;;;;;;45.17;24.33;;;14.40;48.20;;;;;;4996715;28;20029;-86
2022/12/28 10:50:01;;;;;;;36.67;22.38;;;14.30;48.30;;;;;;4996446;28;20061;-89
2022/12/28 10:52:27;;;;;;;35.17;20.83;;;13.90;49.40;;;;;;4997588;28;20034;-89
2022/12/28 10:54:53;;;;;;;31.77;20.85;;;13.60;49.50;;;;;;4996672;28;20041;-87
2022/12/28 10:57:28;;;;;;;29.75;19.10;;;13.60;50.00;;;;;;4996220;28;20470;-87
2022/12/28 11:00:17;;;;;;;30.55;19.15;;;13.60;50.30;;;;;;4996427;28;20049;-87
2022/12/28 11:02:43;;;;;;;30.65;19.80;;;13.60;50.20;;;;;;4997107;28;20034;-89
2022/12/28 11:05:19;;;;;;;30.20;20.00;;;13.30;50.30;;;;;;4996335;28;20101;-89
2022/12/28 11:07:48;;;;;;;31.65;20.60;;;13.20;50.50;;;;;;4996218;28;20129;-90
2022/12/28 11:10:31;;;;;;;34.97;21.80;;;13.50;50.80;;;;;;4996377;28;20396;-89
2022/12/28 11:12:59;;;;;;;31.52;21.15;;;13.60;49.80;;;;;;4995998;28;20126;-89
2022/12/28 11:15:29;;;;;;;33.22;19.05;;;13.20;50.80;;;;;;4996439;28;20037;-89
2022/12/28 11:17:59;;;;;;;36.17;20.63;;;13.00;51.10;;;;;;4996158;28;20034;-89
2022/12/28 11:20:37;;;;;;;33.42;21.23;;;12.50;51.90;;;;;;4997135;28;20085;-89
2022/12/28 11:23:07;;;;;;;32.88;21.75;;;11.90;52.50;;;;;;4995879;28;20042;-89
2022/12/28 11:25:35;;;;;;;38.83;22.92;;;11.70;53.60;;;;;;4996037;28;20027;-89
2022/12/28 11:28:11;;;;;;;35.90;23.05;;;11.80;53.70;;;;;;4996665;28;20517;-87
2022/12/28 11:30:37;;;;;;;36.65;22.35;;;12.50;53.00;;;;;;4997523;28;20018;-88
2022/12/28 11:33:08;;;;;;;34.53;20.60;;;13.00;52.10;;;;;;4996307;28;20030;-88
2022/12/28 11:35:37;;;;;;;31.75;20.27;;;13.30;51.30;;;;;;4997102;28;20026;-89
2022/12/28 11:38:10;;;;;;;31.10;20.02;;;13.20;50.80;;;;;;4996833;28;20485;-88
2022/12/28 11:40:42;;;;;;;34.65;21.00;;;13.10;51.10;;;;;;4996658;28;20030;-88
2022/12/28 11:43:29;;;;;;;31.33;20.60;;;13.00;51.70;;;;;;4995584;28;20030;-89
2022/12/28 11:46:01;;;;;;;36.97;23.08;;;12.90;51.70;;;;;;4995684;28;20117;-88
2022/12/28 11:48:42;;;;;;;31.65;19.75;;;13.10;51.80;;;;;;4995620;28;20048;-88
2022/12/28 11:51:14;;;;;;;29.45;18.90;;;13.10;51.50;;;;;;4995447;28;20585;-87
2022/12/28 11:53:43;;;;;;;34.00;20.55;;;13.20;51.00;;;;;;4995382;28;20019;-88
2022/12/28 11:56:17;;;;;;;35.08;22.67;;;13.00;51.50;;;;;;4995539;28;20073;-88
2022/12/28 11:58:46;;;;;;;33.22;20.55;;;13.20;51.80;;;;;;4995984;28;20030;-88
2022/12/28 12:01:35;;;;;;;32.05;20.33;;;13.20;51.70;;;;;;4996428;28;20052;-87
2022/12/28 12:04:01;;;;;;;29.45;19.95;;;13.10;51.40;;;;;;4996055;28;20030;-88
2022/12/28 12:06:42;;;;;;;36.45;21.30;;;13.20;51.80;;;;;;4996400;28;20056;-86
2022/12/28 12:09:29;;;;;;;30.80;19.13;;;13.30;51.90;;;;;;4995908;28;20026;-87
2022/12/28 12:11:56;;;;;;;32.78;20.92;;;13.30;51.50;;;;;;4995356;28;20045;-88
2022/12/28 12:14:36;;;;;;;31.83;18.90;;;13.40;52.00;;;;;;4995209;28;20015;-87
2022/12/28 12:17:04;;;;;;;;;;;13.60;51.50;;;;;;4995378;28;20058;-86
2022/12/28 12:19:34;;;;;;;31.98;19.00;;;13.70;51.50;;;;;;4994759;28;19906;-88
2022/12/28 12:22:11;;;;;;;30.95;19.38;;;13.70;51.50;;;;;;4994979;28;20034;-88
2022/12/28 12:24:55;;;;;;;30.95;18.88;;;13.80;51.40;;;;;;4995199;28;20061;-88
2022/12/28 12:27:35;;;;;;;32.30;20.98;;;14.00;51.10;;;;;;4994677;28;20072;-87
2022/12/28 12:30:12;;;;;;;30.40;20.63;;;14.10;51.00;;;;;;4994834;28;20022;-87
2022/12/28 12:32:45;;;;;;;32.25;20.52;;;14.20;50.60;;;;;;4994715;28;20516;-88
2022/12/28 12:35:15;;;;;;;34.88;22.77;;;14.20;50.20;;;;;;4994773;28;20060;-87
2022/12/28 12:37:50;;;;;;;40.97;25.85;;;14.30;50.50;;;;;;4994700;28;20034;-87
2022/12/28 12:40:15;;;;;;;44.33;25.80;;;14.30;50.30;;;;;;4994919;28;20030;-87
2022/12/28 12:43:03;;;;;;;40.72;24.02;;;14.10;50.20;;;;;;4993279;28;20034;-87
2022/12/28 12:45:46;;;;;;;35.10;21.48;;;13.70;51.00;;;;;;4994907;28;20030;-87
2022/12/28 12:48:21;;;;;;;34.17;20.88;;;13.50;51.50;;;;;;4994520;28;20050;-86
2022/12/28 12:51:09;;;;;;;41.17;22.08;;;13.70;51.30;;;;;;4994600;28;20442;-87
2022/12/28 12:54:05;;;;;;;36.08;21.98;;;13.80;51.30;;;;;;4994491;28;20428;-87
2022/12/28 12:56:51;;;;;;;36.90;24.15;;;13.80;51.30;;;;;;4994461;28;20109;-87
2022/12/28 12:59:34;;;;;;;42.40;25.25;;;13.70;51.80;;;;;;4995098;28;20109;-87
2022/12/28 13:02:18;;;;;;;38.85;23.52;;;13.80;51.50;;;;;;4994784;28;20031;-87
2022/12/28 13:04:47;;;;;;;42.20;24.20;;;13.50;51.90;;;;;;4995123;28;20026;-87
2022/12/28 13:07:22;;;;;;;53.83;44.03;;;13.40;52.50;;;;;;4994993;28;20035;-88
2022/12/28 13:09:49;;;;;;;34.13;23.02;;;13.50;52.20;;;;;;4994859;28;20031;-87
2022/12/28 13:12:17;;;;;;;38.03;24.00;;;13.80;52.10;;;;;;4994747;28;20076;-86
2022/12/28 13:14:46;;;;;;;38.30;24.02;;;14.00;51.30;;;;;;4993904;28;20034;-87
2022/12/28 13:17:17;;;;;;;36.67;23.35;;;14.00;51.30;;;;;;4993697;28;20026;-87
2022/12/28 13:19:43;;;;;;;44.10;24.23;;;14.00;51.00;;;;;;4993816;28;20069;-87
2022/12/28 13:22:30;;;;;;;34.38;21.65;;;14.00;51.60;;;;;;4993799;28;20405;-88
2022/12/28 13:24:57;;;;;;;30.40;17.98;;;14.10;51.00;;;;;;4993752;28;20081;-86
2022/12/28 13:27:28;;;;;;;32.50;19.55;;;14.00;50.10;;;;;;4993698;28;20117;-87
2022/12/28 13:29:54;;;;;;;28.08;18.20;;;13.90;50.40;;;;;;4993501;28;20034;-87
2022/12/28 13:32:27;;;;;;;27.05;18.05;;;13.80;50.60;;;;;;4993711;28;20026;-88
2022/12/28 13:34:52;;;;;;;33.25;18.70;;;13.90;50.50;;;;;;4993925;28;20030;-87
2022/12/28 13:37:19;;;;;;;31.48;19.85;;;13.90;50.70;;;;;;4993314;28;20470;-87
2022/12/28 13:39:46;;;;;;;31.42;18.80;;;13.60;50.80;;;;;;4993424;28;20118;-87
2022/12/28 13:42:21;;;;;;;33.42;20.40;;;13.60;51.20;;;;;;4993662;28;20030;-87
2022/12/28 13:44:57;;;;;;;30.48;18.85;;;13.50;51.40;;;;;;4993430;28;20435;-88
2022/12/28 13:47:42;;;;;;;33.28;19.98;;;13.40;51.40;;;;;;4993706;28;20034;-87
2022/12/28 13:50:24;;;;;;;27.58;18.48;;;13.40;51.50;;;;;;4993512;28;20030;-87
2022/12/28 13:53:10;;;;;;;34.70;18.75;;;13.60;51.30;;;;;;4992979;28;20029;-87
2022/12/28 13:55:38;;;;;;;30.05;18.33;;;13.70;51.30;;;;;;4993550;28;20508;-88
2022/12/28 13:58:18;;;;;;;29.50;18.10;;;13.80;51.20;;;;;;4993276;28;20022;-87
2022/12/28 14:00:50;;;;;;;27.77;17.35;;;13.90;50.70;;;;;;4993277;28;20084;-87
2022/12/28 14:03:18;;;;;;;28.20;18.50;;;14.10;50.70;;;;;;4993266;28;20053;-87
2022/12/28 14:05:50;;;;;;;35.60;21.60;;;14.20;49.90;;;;;;4992847;28;20374;-87
2022/12/28 14:08:16;;;;;;;30.33;20.40;;;14.10;50.30;;;;;;4993137;28;20034;-87
2022/12/28 14:10:45;;;;;;;31.02;19.73;;;14.00;50.40;;;;;;4993302;28;20034;-88
2022/12/28 14:13:11;;;;;;;30.85;19.35;;;13.80;50.50;;;;;;4993133;28;20027;-87
2022/12/28 14:15:37;;;;;;;32.38;19.42;;;13.60;51.00;;;;;;4993192;28;20094;-86
2022/12/28 14:18:04;;;;;;;31.40;18.77;;;13.60;51.20;;;;;;4993049;28;20026;-87
2022/12/28 14:20:30;;;;;;;28.02;17.35;;;13.70;50.80;;;;;;4993196;28;20469;-94
2022/12/28 14:23:26;;;;;;;28.38;17.90;;;13.80;50.40;;;;;;4993977;28;20046;-87
2022/12/28 14:25:53;;;;;;;33.42;18.05;;;13.60;50.80;;;;;;4993131;28;20068;-87
2022/12/28 14:28:40;;;;;;;31.02;18.95;;;13.60;50.80;;;;;;4994068;28;20034;-87
2022/12/28 14:31:09;;;;;;;36.35;21.58;;;13.50;51.30;;;;;;4992327;28;20492;-88
2022/12/28 14:33:48;;;;;;;32.13;19.00;;;13.50;51.00;;;;;;4989600;28;20022;-87
2022/12/28 14:36:21;;;;;;;32.65;19.67;;;13.50;51.20;;;;;;4987925;28;20055;-88
2022/12/28 14:38:49;;;;;;;32.63;19.02;;;13.60;50.60;;;;;;4992324;28;20030;-86
2022/12/28 14:41:45;;;;;;;34.85;19.65;;;13.50;50.60;;;;;;5001216;28;20084;-87
2022/12/28 14:44:22;;;;;;;34.17;19.73;;;13.60;51.40;;;;;;4968053;28;20475;-86
2022/12/28 14:46:54;;;;;;;33.22;21.35;;;13.60;51.80;;;;;;4977997;28;20109;-88
2022/12/28 14:49:29;;;;;;;38.13;23.23;;;13.70;51.50;;;;;;4983876;28;20065;-87
2022/12/28 14:51:55;;;;;;;38.15;23.13;;;13.80;51.40;;;;;;4990323;28;20031;-88
2022/12/28 14:54:26;;;;;;;37.15;22.02;;;13.60;51.30;;;;;;4975817;28;20421;-86
2022/12/28 14:57:12;;;;;;;71.43;33.53;;;13.60;51.50;;;;;;4987283;28;20371;-86
2022/12/28 14:59:42;;;;;;;38.17;24.40;;;13.50;51.60;;;;;;4973686;28;20027;-93
2022/12/28 15:02:33;;;;;;;36.17;24.27;;;13.40;51.90;;;;;;4976353;28;20022;-88
2022/12/28 15:05:00;;;;;;;37.88;23.55;;;13.20;51.80;;;;;;4993045;28;20026;-94
2022/12/28 15:07:26;;;;;;;41.78;22.50;;;13.00;52.30;;;;;;4995367;28;20045;-86
2022/12/28 15:09:52;;;;;;;115.63;50.88;;;13.10;52.00;;;;;;5009774;28;20025;-87
2022/12/28 15:12:21;;;;;;;102.65;49.45;;;12.70;52.90;;;;;;4991856;28;20029;-92
2022/12/28 15:14:50;;;;;;;108.45;62.25;;;12.60;53.20;;;;;;4650185;28;9999928;-91